• pl
  • eng

Awiacja
Komunikaty METAR z lotnisk wojskowych. 04:01 19.06.2018

METAR EPCE 190230Z 22008KT 9999 OVC077 17/12
Q1017 RMK 169 071 8/8=

METAR EPDA 190230Z 21008KT 9999 FEW068 BKN087 17/11
Q1016 RMK 166 072 7/1=

METAR EPDE 190230Z 29004KT CAVOK 16/15 Q1018 RMK 163 089 4/4=

METAR EPIR 190230Z NIL=

METAR EPKS 190230Z NIL=

METAR EPLK 190230Z NIL=

METAR EPLY 190230Z NIL=

METAR EPMB 190230Z 20004KT CAVOK 14/12 Q1017 RMK 138 089 3/3=

METAR EPMI 190230Z NIL=

METAR EPMM 190230Z 34004KT CAVOK 16/16 Q1019 RMK 162 098 6/4=

METAR EPNA 190230Z NIL=

METAR EPOK 190230Z 22008KT 9999 BKN072 17/12
Q1016 RMK 174 071 6/6=

METAR EPPR 190230Z 20004KT 9999 BKN070 16/12 Q1017 RMK 155 078 7/7=

METAR COR EPPW 190230Z 26002KT CAVOK 16/11 Q1019 RMK 155 076 5/5=

METAR EPSN 190230Z NIL=

METAR EPTM 190230Z AUTO 29002KT 14/10 Q1019 RMK 140 076 ///=
Awiacja.imgw.pl jest pogodowym serwisem informacyjnym
Instytutu Meteorologii i Gospodarki Wodnej Państwowego Instytutu Badawczego.
Copyright IMGW PIB 2009-2011© Wszelkie prawa zastrzeżone.